Terminal Aerodrome Forecast
Issued by NWS Cleveland, OH

Home | Current Version | Previous Version | Graphics & Text | Print | Product List | Glossary On
Versions: 1 2 3 4 5 6 7 8 9 10 11 12 13 14 15 16 17 18 19 20 21 22 23 24 25 26 27 28 29 30 31
000
FTUS41 KCLE 200200 AAA
TAFCLE
TAF AMD
KCLE 200252Z 2003/2106 32010KT P6SM SCT025 OVC035
     FM200900 35008KT P6SM BKN035 OVC250
     FM201800 35010KT P6SM BKN100 OVC200=

USA.gov is the U.S. government's official web portal to all federal, state and local government web resources and services.